KDVT/DVT METAR and TAF weather

Enter ICAO airport designator
Station Type Date Time Source
KDVT METAR 2022/06/27 17:53 UTC NOAA

KDVT 271753Z 11007KT 050V240 10SM CLR 34/15 A3007 RMK AO2 SLP156 6//// T03440150 10344 20261 58016 PNO $


Station Type Date Time Source
KDVT Decoded METAR 2022/06/27 17:53 UTC NOAA

PHOENIX-DEER VALLEY MUN, AZ, United States (KDVT) 33-41N 112-04W 443M
Jun 27, 2022 - 01:53 PM EDT / 2022.06.27 1753 UTC
Wind: from the ESE (110 degrees) at 8 MPH (7 KT) (direction variable):0
Visibility: 10 mile(s):0
Sky conditions: clear
Temperature: 93.9 F (34.4 C)
Dew Point: 59.0 F (15.0 C)
Relative Humidity: 31%
Pressure (altimeter): 30.07 in. Hg (1018 hPa)
Pressure tendency: 0.05 inches (1.6 hPa) lower than three hours ago
ob: KDVT 271753Z 11007KT 050V240 10SM CLR 34/15 A3007 RMK AO2 SLP156 6//// T03440150 10344 20261 58016 PNO
cycle: 18

Station Type Date Time Source
KDVT TAF 2022/06/27 18:42 UTC NOAA

TAF KDVT 271741Z 2718/2818 13007KT P6SM SKC
FM280000 05008KT P6SM FEW100 BKN150 BKN250
FM280800 11008KT P6SM FEW150 FEW250

Example: see airport list